Terminal Aerodrome Forecast
Issued by NWS Twin Cities, MN

Home | Current Version | Previous Version | Text Only | Print | Product List | Glossary Off
Versions: 1 2 3 4 5 6 7 8 9 10 11 12 13 14 15 16

000
FTUS43 KMPX 271726
TAFEAU
TAF
KEAU 271726Z 2718/2818 14008KT P6SM SCT020 OVC040
      TEMPO 2718/2721 5SM -SHRA BR BKN020 OVC040
     FM272100 14005KT P6SM BKN015 OVC035
     FM280600 VRB02KT 3SM BR SCT005 BKN012
     FM280800 VRB02KT 1/2SM FG VV002
     FM281300 15003KT 4SM BR SCT005 BKN012
     FM281600 16005KT P6SM BKN015=

USA.gov is the U.S. government's official web portal to all federal, state and local government web resources and services.